createdAt,value
2023-03-06T00:00:50.428Z,94875.34
2023-03-06T00:01:52.357Z,94884.97
2023-03-06T00:02:55.190Z,94879.56
2023-03-06T00:03:58.089Z,94884.97
2023-03-06T00:05:00.944Z,94882.66
2023-03-06T00:06:03.000Z,94876.47
2023-03-06T00:07:07.351Z,94880.75
2023-03-06T00:08:09.343Z,94884.59
2023-03-06T00:09:12.195Z,94879.19
2023-03-06T00:10:15.455Z,94873.78
2023-03-06T00:11:18.396Z,94875.34
2023-03-06T00:12:20.234Z,94872.25
2023-03-06T00:13:26.516Z,94873.78
2023-03-06T00:14:28.361Z,94873.03
2023-03-06T00:15:31.194Z,94873.03
2023-03-06T00:16:33.189Z,94861.44
2023-03-06T00:17:36.197Z,94868.38
2023-03-06T00:18:38.125Z,94864.16
2023-03-06T00:19:40.947Z,94859.91
2023-03-06T00:20:44.400Z,94859.91
2023-03-06T00:21:47.230Z,94857.97
2023-03-06T00:22:51.038Z,94862.97
2023-03-06T00:23:53.926Z,94862.22
2023-03-06T00:24:55.822Z,94858.75
2023-03-06T00:25:58.691Z,94861.44
2023-03-06T00:27:00.518Z,94856.81
2023-03-06T00:28:03.481Z,94849.84
2023-03-06T00:29:05.578Z,94851.41
2023-03-06T00:30:11.921Z,94850.66
2023-03-06T00:31:13.815Z,94855.25
2023-03-06T00:32:16.782Z,94854.50
2023-03-06T00:33:18.663Z,94847.56
2023-03-06T00:34:21.690Z,94844.88
2023-03-06T00:35:23.927Z,94851.41
2023-03-06T00:36:26.744Z,94847.56
2023-03-06T00:37:28.625Z,94837.53
2023-03-06T00:38:35.541Z,94846.81
2023-03-06T00:39:37.419Z,94840.59
2023-03-06T00:40:40.318Z,94840.59
2023-03-06T00:41:42.251Z,94846.00
2023-03-06T00:42:45.829Z,94834.44
2023-03-06T00:43:47.696Z,94834.44
2023-03-06T00:44:50.497Z,94832.50
2023-03-06T00:45:52.352Z,94828.28
2023-03-06T00:46:55.277Z,94832.91
2023-03-06T00:47:57.183Z,94831.75
2023-03-06T00:49:00.792Z,94828.28
2023-03-06T00:50:03.058Z,94833.69
2023-03-06T00:51:07.101Z,94829.81
2023-03-06T00:52:08.963Z,94826.72
2023-03-06T00:53:13.253Z,94826.72
2023-03-06T00:54:17.174Z,94822.88
2023-03-06T00:55:20.051Z,94823.25
2023-03-06T00:56:21.931Z,94820.56
2023-03-06T00:57:25.596Z,94821.31
2023-03-06T00:58:28.405Z,94815.16
2023-03-06T00:59:35.956Z,94815.91
2023-03-06T01:00:38.426Z,94812.44
2023-03-06T01:01:42.594Z,94809.00
2023-03-06T01:02:44.522Z,94810.50
2023-03-06T01:03:47.385Z,94814.38
2023-03-06T01:04:49.354Z,94811.69
2023-03-06T01:05:52.205Z,94814.38
2023-03-06T01:06:54.052Z,94810.50
2023-03-06T01:07:56.991Z,94803.59
2023-03-06T01:08:59.250Z,94802.81
2023-03-06T01:10:03.542Z,94799.72
2023-03-06T01:11:05.812Z,94803.59
2023-03-06T01:12:09.346Z,94795.47
2023-03-06T01:13:11.230Z,94795.47
2023-03-06T01:14:14.300Z,94792.78
2023-03-06T01:15:16.237Z,94788.56
2023-03-06T01:16:21.215Z,94791.25
2023-03-06T01:17:23.708Z,94787.38
2023-03-06T01:18:26.526Z,94788.56
2023-03-06T01:19:28.481Z,94785.84
2023-03-06T01:20:31.903Z,94789.31
2023-03-06T01:21:33.996Z,94773.50
2023-03-06T01:22:36.772Z,94778.91
2023-03-06T01:23:38.600Z,94772.34
2023-03-06T01:24:41.579Z,94770.41
2023-03-06T01:25:45.021Z,94766.16
2023-03-06T01:26:47.939Z,94775.03
2023-03-06T01:27:49.794Z,94762.69
2023-03-06T01:28:53.181Z,94767.34
2023-03-06T01:29:55.290Z,94761.16
2023-03-06T01:30:58.671Z,94757.28
2023-03-06T01:32:00.657Z,94752.66
2023-03-06T01:33:03.578Z,94745.72
2023-03-06T01:34:05.448Z,94744.97
2023-03-06T01:35:09.271Z,94745.72
2023-03-06T01:36:13.078Z,94739.56
2023-03-06T01:37:16.272Z,94741.47
2023-03-06T01:38:18.188Z,94739.56
2023-03-06T01:39:21.029Z,94740.69
2023-03-06T01:40:22.915Z,94733.78
2023-03-06T01:41:27.161Z,94726.44
2023-03-06T01:42:30.808Z,94725.69
2023-03-06T01:43:36.907Z,94722.97
2023-03-06T01:45:00.138Z,94718.72
2023-03-06T01:46:26.116Z,94721.03
2023-03-06T01:47:27.992Z,94721.78
2023-03-06T01:48:30.917Z,94721.78
2023-03-06T01:49:36.792Z,94726.44
2023-03-06T01:50:39.883Z,94721.03
2023-03-06T01:51:49.561Z,94716.41
2023-03-06T01:52:54.522Z,94727.19
2023-03-06T01:54:01.571Z,94711.00
2023-03-06T01:55:08.309Z,94719.09
2023-03-06T01:56:13.375Z,94715.25
2023-03-06T01:57:23.375Z,94715.25
2023-03-06T01:58:25.346Z,94716.41
2023-03-06T01:59:30.223Z,94703.66
2023-03-06T02:00:32.387Z,94709.84
2023-03-06T02:01:36.108Z,94704.44
2023-03-06T02:02:39.612Z,94701.75
2023-03-06T02:03:46.198Z,94705.59
2023-03-06T02:04:48.697Z,94696.72
2023-03-06T02:05:51.689Z,94700.59
2023-03-06T02:06:54.145Z,94708.69
2023-03-06T02:07:58.468Z,94698.66
2023-03-06T02:09:00.425Z,94697.91
2023-03-06T02:10:03.528Z,94702.50
2023-03-06T02:11:12.451Z,94696.34
2023-03-06T02:12:20.671Z,94690.19
2023-03-06T02:13:22.741Z,94688.63
2023-03-06T02:14:28.725Z,94689.44
2023-03-06T02:15:32.350Z,94688.63
2023-03-06T02:16:35.868Z,94692.88
2023-03-06T02:17:37.789Z,94682.47
2023-03-06T02:18:41.766Z,94683.22
2023-03-06T02:19:53.595Z,94685.16
2023-03-06T02:20:58.950Z,94688.63
2023-03-06T02:22:02.167Z,94683.22
2023-03-06T02:23:10.353Z,94679.78
2023-03-06T02:24:23.519Z,94684.41
2023-03-06T02:25:34.848Z,94686.34
2023-03-06T02:26:39.524Z,94679.78
2023-03-06T02:27:41.895Z,94681.72
2023-03-06T02:28:44.725Z,94683.22
2023-03-06T02:29:47.538Z,94674.38
2023-03-06T02:30:53.379Z,94672.44
2023-03-06T02:31:55.912Z,94670.16
2023-03-06T02:32:59.214Z,94670.16
2023-03-06T02:34:03.996Z,94674.78
2023-03-06T02:35:07.908Z,94669.38
2023-03-06T02:36:15.531Z,94667.84
2023-03-06T02:37:18.563Z,94670.91
2023-03-06T02:38:24.100Z,94669.38
2023-03-06T02:39:30.920Z,94663.97
2023-03-06T02:40:35.477Z,94661.28
2023-03-06T02:41:37.419Z,94668.59
2023-03-06T02:42:47.113Z,94662.44
2023-03-06T02:43:52.334Z,94661.66
2023-03-06T02:44:56.934Z,94667.84
2023-03-06T02:45:58.942Z,94655.50
2023-03-06T02:47:02.196Z,94654.72
2023-03-06T02:48:05.271Z,94659.34
2023-03-06T02:49:08.201Z,94658.59
2023-03-06T02:50:11.230Z,94658.59
2023-03-06T02:51:14.065Z,94653.59
2023-03-06T02:52:16.014Z,94655.53
2023-03-06T02:53:20.244Z,94654.00
2023-03-06T02:54:22.074Z,94660.16
2023-03-06T02:55:25.976Z,94648.59
2023-03-06T02:56:30.958Z,94653.22
2023-03-06T02:57:34.130Z,94653.22
2023-03-06T02:58:36.113Z,94654.38
2023-03-06T02:59:39.030Z,94651.69
2023-03-06T03:00:41.421Z,94644.75
2023-03-06T03:01:47.784Z,94643.97
2023-03-06T03:02:50.792Z,94643.59
2023-03-06T03:03:52.848Z,94645.91
2023-03-06T03:04:57.266Z,94646.28
2023-03-06T03:06:00.226Z,94643.97
2023-03-06T03:07:08.218Z,94643.22
2023-03-06T03:08:12.862Z,94638.56
2023-03-06T03:09:15.796Z,94636.66
2023-03-06T03:10:18.040Z,94635.47
2023-03-06T03:11:22.000Z,94633.97
2023-03-06T03:12:25.380Z,94635.47
2023-03-06T03:13:28.244Z,94633.16
2023-03-06T03:14:30.434Z,94638.19
2023-03-06T03:15:33.371Z,94631.25
2023-03-06T03:16:36.277Z,94633.97
2023-03-06T03:17:42.240Z,94632.41
2023-03-06T03:18:45.008Z,94620.84
2023-03-06T03:19:48.114Z,94625.50
2023-03-06T03:20:50.167Z,94619.28
2023-03-06T03:21:53.027Z,94622.41
2023-03-06T03:22:57.879Z,94622.41
2023-03-06T03:24:00.685Z,94623.94
2023-03-06T03:25:04.424Z,94624.34
2023-03-06T03:26:09.389Z,94625.13
2023-03-06T03:27:14.603Z,94627.81
2023-03-06T03:28:20.288Z,94627.81
2023-03-06T03:29:22.245Z,94627.81
2023-03-06T03:30:25.054Z,94628.56
2023-03-06T03:31:27.189Z,94628.56
2023-03-06T03:32:30.657Z,94627.81
2023-03-06T03:33:32.616Z,94621.25
2023-03-06T03:34:35.725Z,94625.13
2023-03-06T03:35:38.010Z,94625.13
2023-03-06T03:36:41.046Z,94627.06
2023-03-06T03:37:45.067Z,94622.03
2023-03-06T03:38:48.499Z,94624.75
2023-03-06T03:39:50.453Z,94622.03
2023-03-06T03:40:53.450Z,94626.25
2023-03-06T03:41:55.483Z,94620.50
2023-03-06T03:42:58.698Z,94622.03
2023-03-06T03:44:02.171Z,94615.09
2023-03-06T03:45:05.489Z,94617.03
2023-03-06T03:46:07.470Z,94617.78
2023-03-06T03:47:10.470Z,94618.97
2023-03-06T03:48:12.493Z,94617.78
2023-03-06T03:49:15.625Z,94610.88
2023-03-06T03:50:19.376Z,94612.81
2023-03-06T03:51:22.976Z,94611.63
2023-03-06T03:52:28.452Z,94616.28
2023-03-06T03:53:31.354Z,94614.75
2023-03-06T03:54:33.874Z,94612.03
2023-03-06T03:55:36.826Z,94616.28
2023-03-06T03:56:40.701Z,94612.03
2023-03-06T03:57:49.020Z,94607.41
2023-03-06T03:58:51.364Z,94610.88
2023-03-06T03:59:55.920Z,94609.34
2023-03-06T04:01:16.766Z,94608.56
2023-03-06T04:02:21.617Z,94612.03
2023-03-06T04:03:32.947Z,94604.72
2023-03-06T04:04:35.029Z,94606.66
2023-03-06T04:05:37.971Z,94595.84
2023-03-06T04:06:42.074Z,94598.56
2023-03-06T04:07:45.253Z,94602.78
2023-03-06T04:08:47.334Z,94590.84
2023-03-06T04:09:50.460Z,94590.06
2023-03-06T04:10:54.274Z,94583.88
2023-03-06T04:11:58.614Z,94589.28
2023-03-06T04:13:00.841Z,94588.13
2023-03-06T04:14:04.479Z,94583.88
2023-03-06T04:15:09.387Z,94578.09
2023-03-06T04:16:12.261Z,94576.56
2023-03-06T04:17:15.516Z,94575.41
2023-03-06T04:18:19.498Z,94580.03
2023-03-06T04:19:21.430Z,94580.78
2023-03-06T04:20:26.018Z,94575.41
2023-03-06T04:21:27.995Z,94574.63
2023-03-06T04:22:31.140Z,94571.19
2023-03-06T04:23:33.163Z,94572.69
2023-03-06T04:24:36.285Z,94572.69
2023-03-06T04:25:38.527Z,94571.19
2023-03-06T04:26:43.508Z,94571.56
2023-03-06T04:27:45.801Z,94573.09
2023-03-06T04:28:49.099Z,94578.50
2023-03-06T04:29:51.391Z,94580.03
2023-03-06T04:30:55.667Z,94583.88
2023-03-06T04:31:57.945Z,94580.03
2023-03-06T04:33:01.190Z,94580.03
2023-03-06T04:34:03.228Z,94578.50
2023-03-06T04:35:07.088Z,94576.22
2023-03-06T04:36:26.480Z,94583.13
2023-03-06T04:37:31.096Z,94576.22
2023-03-06T04:38:35.171Z,94573.50
2023-03-06T04:39:39.490Z,94576.97
2023-03-06T04:40:44.562Z,94576.97
2023-03-06T04:41:46.823Z,94582.38
2023-03-06T04:42:49.880Z,94570.03
2023-03-06T04:43:51.823Z,94573.50
2023-03-06T04:44:54.566Z,94578.91
2023-03-06T04:45:58.177Z,94570.81
2023-03-06T04:47:01.031Z,94581.59
2023-03-06T04:48:02.948Z,94576.97
2023-03-06T04:49:05.894Z,94577.72
2023-03-06T04:50:09.144Z,94568.09
2023-03-06T04:51:13.209Z,94570.81
2023-03-06T04:52:15.030Z,94575.03
2023-03-06T04:53:19.569Z,94568.09
2023-03-06T04:54:21.673Z,94571.56
2023-03-06T04:55:24.522Z,94570.81
2023-03-06T04:56:26.734Z,94571.56
2023-03-06T04:57:29.598Z,94576.22
2023-03-06T04:58:31.612Z,94565.41
2023-03-06T04:59:34.440Z,94563.84
2023-03-06T05:00:36.321Z,94577.34
2023-03-06T05:01:40.642Z,94567.72
2023-03-06T05:02:43.060Z,94560.41
2023-03-06T05:03:45.925Z,94562.34
2023-03-06T05:04:47.776Z,94564.66
2023-03-06T05:05:50.803Z,94560.78
2023-03-06T05:06:52.623Z,94566.19
2023-03-06T05:07:56.083Z,94564.66
2023-03-06T05:08:58.062Z,94566.19
2023-03-06T05:10:01.089Z,94553.88
2023-03-06T05:11:03.066Z,94556.56
2023-03-06T05:12:06.244Z,94554.63
2023-03-06T05:13:08.235Z,94556.56
2023-03-06T05:14:11.158Z,94554.63
2023-03-06T05:15:13.945Z,94554.63
2023-03-06T05:16:16.890Z,94554.63
2023-03-06T05:17:20.328Z,94549.22
2023-03-06T05:18:23.172Z,94545.75
2023-03-06T05:19:25.101Z,94550.00
2023-03-06T05:20:28.666Z,94555.38
2023-03-06T05:21:30.518Z,94552.69
2023-03-06T05:22:34.065Z,94543.44
2023-03-06T05:23:38.515Z,94541.88
2023-03-06T05:24:42.352Z,94548.84
2023-03-06T05:25:44.144Z,94552.28
2023-03-06T05:26:46.933Z,94548.44
2023-03-06T05:27:49.000Z,94546.13
2023-03-06T05:28:51.792Z,94543.44
2023-03-06T05:29:54.686Z,94546.13
2023-03-06T05:30:57.519Z,94551.53
2023-03-06T05:31:59.459Z,94548.84
2023-03-06T05:33:03.708Z,94547.66
2023-03-06T05:34:05.736Z,94541.50
2023-03-06T05:35:09.099Z,94542.25
2023-03-06T05:36:11.619Z,94543.06
2023-03-06T05:37:14.488Z,94544.97
2023-03-06T05:38:17.103Z,94550.34
2023-03-06T05:39:19.956Z,94542.25
2023-03-06T05:40:23.068Z,94544.97
2023-03-06T05:41:24.954Z,94544.97
2023-03-06T05:42:28.725Z,94551.16
2023-03-06T05:43:30.672Z,94541.50
2023-03-06T05:44:34.264Z,94546.91
2023-03-06T05:45:36.410Z,94544.97
2023-03-06T05:46:39.420Z,94544.97
2023-03-06T05:47:41.353Z,94541.50
2023-03-06T05:48:47.198Z,94541.50
2023-03-06T05:49:49.104Z,94539.19
2023-03-06T05:50:56.587Z,94538.03
2023-03-06T05:51:58.453Z,94546.13
2023-03-06T05:53:03.943Z,94548.84
2023-03-06T05:54:06.884Z,94541.50
2023-03-06T05:55:11.641Z,94540.75
2023-03-06T05:56:14.500Z,94541.50
2023-03-06T05:57:16.486Z,94541.50
2023-03-06T05:58:19.329Z,94547.66
2023-03-06T05:59:21.373Z,94543.44
2023-03-06T06:00:25.130Z,94555.75
2023-03-06T06:01:28.461Z,94545.38
2023-03-06T06:02:31.559Z,94552.28
2023-03-06T06:03:33.625Z,94551.53
2023-03-06T06:04:37.843Z,94546.91
2023-03-06T06:05:40.199Z,94546.91
2023-03-06T06:06:42.993Z,94550.34
2023-03-06T06:07:44.818Z,94553.84
2023-03-06T06:08:47.713Z,94554.59
2023-03-06T06:09:53.202Z,94554.25
2023-03-06T06:10:56.382Z,94553.06
2023-03-06T06:12:00.695Z,94551.91
2023-03-06T06:13:03.550Z,94554.59
2023-03-06T06:14:05.376Z,94553.44
2023-03-06T06:15:09.129Z,94554.59
2023-03-06T06:16:12.625Z,94555.38
2023-03-06T06:17:16.612Z,94558.81
2023-03-06T06:18:18.743Z,94561.53
2023-03-06T06:19:22.352Z,94560.78
2023-03-06T06:20:27.477Z,94565.78
2023-03-06T06:21:29.374Z,94558.81
2023-03-06T06:22:32.205Z,94564.59
2023-03-06T06:23:34.662Z,94565.34
2023-03-06T06:24:37.505Z,94562.28
2023-03-06T06:25:39.636Z,94569.19
2023-03-06T06:26:42.487Z,94575.38
2023-03-06T06:27:45.321Z,94574.19
2023-03-06T06:28:47.159Z,94574.19
2023-03-06T06:29:52.287Z,94570.75
2023-03-06T06:30:54.240Z,94573.69
2023-03-06T06:31:57.678Z,94569.09
2023-03-06T06:33:01.885Z,94567.50
2023-03-06T06:34:04.618Z,94572.16
2023-03-06T06:35:08.241Z,94568.66
2023-03-06T06:36:19.384Z,94569.84
2023-03-06T06:37:22.334Z,94566.38
2023-03-06T06:38:24.172Z,94570.22
2023-03-06T06:39:27.066Z,94569.88
2023-03-06T06:40:29.592Z,94564.47
2023-03-06T06:41:51.008Z,94559.47
2023-03-06T06:42:55.460Z,94567.97
2023-03-06T06:43:59.070Z,94569.16
2023-03-06T06:45:02.109Z,94562.19
2023-03-06T06:46:28.311Z,94566.09
2023-03-06T06:47:27.174Z,94565.28
2023-03-06T06:48:29.120Z,94566.09
2023-03-06T06:49:32.377Z,94564.53
2023-03-06T06:50:34.285Z,94565.28
2023-03-06T06:51:38.492Z,94562.59
2023-03-06T06:52:41.997Z,94559.13
2023-03-06T06:53:44.573Z,94566.47
2023-03-06T06:54:47.446Z,94561.84
2023-03-06T06:55:49.406Z,94560.31
2023-03-06T06:56:52.327Z,94569.94
2023-03-06T06:57:54.196Z,94564.53
2023-03-06T06:59:15.379Z,94567.22
2023-03-06T07:00:20.348Z,94568.41
2023-03-06T07:01:22.688Z,94563.00
2023-03-06T07:02:25.598Z,94556.84
2023-03-06T07:03:27.488Z,94557.63
2023-03-06T07:04:30.291Z,94567.22
2023-03-06T07:05:33.075Z,94564.53
2023-03-06T07:06:34.967Z,94563.38
2023-03-06T07:07:39.306Z,94564.53
2023-03-06T07:08:41.154Z,94567.59
2023-03-06T07:09:43.976Z,94563.38
2023-03-06T07:10:45.824Z,94573.00
2023-03-06T07:11:48.794Z,94564.91
2023-03-06T07:12:51.743Z,94563.38
2023-03-06T07:13:53.666Z,94563.38
2023-03-06T07:14:59.551Z,94569.53
2023-03-06T07:16:01.609Z,94569.16
2023-03-06T07:17:04.735Z,94567.59
2023-03-06T07:18:06.566Z,94564.91
2023-03-06T07:19:09.465Z,94566.44
2023-03-06T07:20:12.663Z,94564.50
2023-03-06T07:21:15.634Z,94559.88
2023-03-06T07:22:17.519Z,94565.28
2023-03-06T07:23:21.962Z,94559.88
2023-03-06T07:24:23.856Z,94556.00
2023-03-06T07:25:26.846Z,94565.28
2023-03-06T07:26:32.723Z,94563.34
2023-03-06T07:27:36.170Z,94568.34
2023-03-06T07:28:51.571Z,94564.09
2023-03-06T07:29:54.181Z,94566.78
2023-03-06T07:30:57.064Z,94568.34
2023-03-06T07:32:00.109Z,94562.94
2023-03-06T07:33:02.926Z,94562.94
2023-03-06T07:34:05.845Z,94569.88
2023-03-06T07:35:19.674Z,94568.34
2023-03-06T07:36:24.793Z,94575.25
2023-03-06T07:37:28.506Z,94569.88
2023-03-06T07:38:33.364Z,94565.25
2023-03-06T07:39:35.226Z,94564.47
2023-03-06T07:40:38.873Z,94570.66
2023-03-06T07:41:41.808Z,94564.47
2023-03-06T07:42:43.843Z,94564.47
2023-03-06T07:43:49.309Z,94574.50
2023-03-06T07:44:51.951Z,94578.75
2023-03-06T07:45:58.836Z,94576.06
2023-03-06T07:47:01.877Z,94572.56
2023-03-06T07:48:06.442Z,94576.06
2023-03-06T07:49:09.287Z,94573.34
2023-03-06T07:50:12.656Z,94567.94
2023-03-06T07:51:17.605Z,94574.13
2023-03-06T07:52:19.483Z,94571.41
2023-03-06T07:53:22.716Z,94576.81
2023-03-06T07:54:26.978Z,94578.34
2023-03-06T07:55:29.815Z,94578.34
2023-03-06T07:56:34.904Z,94579.09
2023-03-06T07:57:37.447Z,94579.88
2023-03-06T07:58:42.545Z,94582.59
2023-03-06T07:59:44.495Z,94584.88
2023-03-06T08:00:47.835Z,94586.81
2023-03-06T08:01:50.901Z,94589.50
2023-03-06T08:02:53.852Z,94584.09
2023-03-06T08:03:55.819Z,94590.28
2023-03-06T08:04:58.763Z,94582.97
2023-03-06T08:06:08.871Z,94589.88
2023-03-06T08:07:13.146Z,94584.47
2023-03-06T08:08:16.336Z,94584.47
2023-03-06T08:09:18.203Z,94584.47
2023-03-06T08:10:22.643Z,94589.88
2023-03-06T08:11:27.323Z,94589.88
2023-03-06T08:12:30.172Z,94590.63
2023-03-06T08:13:33.494Z,94591.41
2023-03-06T08:14:37.866Z,94586.78
2023-03-06T08:15:40.729Z,94586.78
2023-03-06T08:16:43.569Z,94586.38
2023-03-06T08:17:46.469Z,94587.16
2023-03-06T08:18:49.604Z,94591.78
2023-03-06T08:19:52.429Z,94590.63
2023-03-06T08:21:02.031Z,94590.63
2023-03-06T08:22:05.938Z,94590.63
2023-03-06T08:23:08.813Z,94597.53
2023-03-06T08:24:13.195Z,94596.78
2023-03-06T08:25:15.156Z,94598.31
2023-03-06T08:26:21.947Z,94591.38
2023-03-06T08:27:25.092Z,94594.84
2023-03-06T08:28:27.114Z,94594.84
2023-03-06T08:29:31.557Z,94597.53
2023-03-06T08:30:35.389Z,94596.78
2023-03-06T08:31:40.363Z,94597.53
2023-03-06T08:32:43.298Z,94594.44
2023-03-06T08:33:45.283Z,94595.22
2023-03-06T08:34:48.104Z,94607.56
2023-03-06T08:35:50.979Z,94599.47
2023-03-06T08:36:55.381Z,94609.09
2023-03-06T08:37:57.219Z,94606.00
2023-03-06T08:39:00.928Z,94606.00
2023-03-06T08:40:06.113Z,94608.28
2023-03-06T08:41:09.815Z,94607.13
2023-03-06T08:42:14.425Z,94607.50
2023-03-06T08:43:17.310Z,94608.25
2023-03-06T08:44:20.141Z,94609.03
2023-03-06T08:45:22.094Z,94614.41
2023-03-06T08:46:27.535Z,94610.56
2023-03-06T08:47:29.529Z,94606.69
2023-03-06T08:48:33.272Z,94607.06
2023-03-06T08:49:38.292Z,94609.03
2023-03-06T08:50:42.326Z,94614.41
2023-03-06T08:51:44.218Z,94611.72
2023-03-06T08:52:47.087Z,94615.97
2023-03-06T08:53:50.136Z,94618.66
2023-03-06T08:54:53.024Z,94621.38
2023-03-06T08:55:54.971Z,94624.84
2023-03-06T08:56:57.824Z,94613.63
2023-03-06T08:58:02.073Z,94619.81
2023-03-06T08:59:06.600Z,94615.16
2023-03-06T09:00:11.139Z,94611.28
2023-03-06T09:01:15.937Z,94616.69
2023-03-06T09:02:18.808Z,94619.00
2023-03-06T09:03:21.829Z,94614.34
2023-03-06T09:04:24.715Z,94613.19
2023-03-06T09:05:26.979Z,94615.91
2023-03-06T09:06:32.848Z,94619.75
2023-03-06T09:07:36.274Z,94606.25
2023-03-06T09:08:38.409Z,94616.66
2023-03-06T09:09:41.325Z,94617.41
2023-03-06T09:10:46.920Z,94612.03
2023-03-06T09:11:51.202Z,94610.88
2023-03-06T09:12:55.432Z,94612.03
2023-03-06T09:13:59.375Z,94608.94
2023-03-06T09:15:05.189Z,94607.75
2023-03-06T09:16:07.390Z,94607.38
2023-03-06T09:17:10.291Z,94613.56
2023-03-06T09:18:12.198Z,94613.56
2023-03-06T09:19:15.139Z,94611.63
2023-03-06T09:20:17.132Z,94622.44
2023-03-06T09:21:20.218Z,94618.97
2023-03-06T09:22:23.106Z,94610.88
2023-03-06T09:23:25.995Z,94620.50
2023-03-06T09:24:29.261Z,94619.31
2023-03-06T09:25:32.102Z,94612.75
2023-03-06T09:26:45.705Z,94620.88
2023-03-06T09:28:08.687Z,94614.28
2023-03-06T09:29:16.280Z,94621.22
2023-03-06T09:30:19.901Z,94614.28
2023-03-06T09:31:22.800Z,94613.13
2023-03-06T09:32:26.839Z,94616.97
2023-03-06T09:33:31.267Z,94614.66
2023-03-06T09:34:34.141Z,94611.94
2023-03-06T09:35:37.137Z,94615.81
2023-03-06T09:36:55.527Z,94617.34
2023-03-06T09:37:59.849Z,94607.31
2023-03-06T09:39:03.045Z,94614.25
2023-03-06T09:40:06.374Z,94616.56
2023-03-06T09:41:20.088Z,94615.00
2023-03-06T09:42:24.322Z,94614.63
2023-03-06T09:43:30.148Z,94613.44
2023-03-06T09:44:36.937Z,94620.78
2023-03-06T09:45:38.801Z,94618.44
2023-03-06T09:46:57.952Z,94621.16
2023-03-06T09:48:05.933Z,94625.81
2023-03-06T09:49:19.769Z,94612.72
2023-03-06T09:50:33.665Z,94611.94
2023-03-06T09:51:48.814Z,94606.53
2023-03-06T09:53:04.123Z,94615.81
2023-03-06T09:54:13.384Z,94610.00
2023-03-06T09:55:18.771Z,94615.41
2023-03-06T09:56:30.054Z,94617.72
2023-03-06T09:57:36.752Z,94613.88
2023-03-06T09:58:45.005Z,94610.75
2023-03-06T09:59:53.484Z,94613.06
2023-03-06T10:01:01.145Z,94613.41
2023-03-06T10:02:15.992Z,94620.34
2023-03-06T10:03:25.780Z,94614.94
2023-03-06T10:04:37.979Z,94611.09
2023-03-06T10:05:44.091Z,94604.88
2023-03-06T10:06:50.337Z,94612.66
2023-03-06T10:07:58.140Z,94600.28
2023-03-06T10:09:04.808Z,94602.25
2023-03-06T10:10:15.088Z,94606.16
2023-03-06T10:11:23.733Z,94609.59
2023-03-06T10:12:28.577Z,94606.91
2023-03-06T10:13:38.261Z,94608.84
2023-03-06T10:14:48.477Z,94599.63
2023-03-06T10:15:59.756Z,94609.66
2023-03-06T10:17:03.101Z,94604.28
2023-03-06T10:18:06.344Z,94609.69
2023-03-06T10:19:14.133Z,94608.94
2023-03-06T10:20:19.697Z,94604.69
2023-03-06T10:21:38.652Z,94609.31
2023-03-06T10:23:00.066Z,94602.75
2023-03-06T10:24:18.214Z,94612.78
2023-03-06T10:25:28.018Z,94604.28
2023-03-06T10:26:36.332Z,94611.22
2023-03-06T10:27:47.080Z,94596.53
2023-03-06T10:29:04.177Z,94602.31
2023-03-06T10:30:23.059Z,94610.41
2023-03-06T10:31:29.369Z,94594.22
2023-03-06T10:32:48.680Z,94598.06
2023-03-06T10:33:56.373Z,94596.53
2023-03-06T10:35:00.968Z,94599.25
2023-03-06T10:36:04.700Z,94595.00
2023-03-06T10:37:18.156Z,94600.41
2023-03-06T10:38:23.408Z,94588.06
2023-03-06T10:39:25.324Z,94598.88
2023-03-06T10:40:36.433Z,94602.34
2023-03-06T10:41:39.342Z,94595.78
2023-03-06T10:42:41.277Z,94590.38
2023-03-06T10:43:46.339Z,94592.72
2023-03-06T10:44:48.305Z,94596.94
2023-03-06T10:45:53.441Z,94590.41
2023-03-06T10:46:57.730Z,94597.00
2023-03-06T10:48:11.152Z,94596.19
2023-03-06T10:49:26.046Z,94598.13
2023-03-06T10:50:32.264Z,94599.69
2023-03-06T10:51:35.544Z,94600.81
2023-03-06T10:52:38.463Z,94597.34
2023-03-06T10:53:49.844Z,94601.94
2023-03-06T10:54:52.719Z,94597.31
2023-03-06T10:55:56.449Z,94592.66
2023-03-06T10:56:59.796Z,94588.03
2023-03-06T10:58:19.704Z,94597.66
2023-03-06T10:59:25.161Z,94590.31
2023-03-06T11:00:35.970Z,94595.72
2023-03-06T11:01:39.729Z,94593.03
2023-03-06T11:02:42.992Z,94595.72
2023-03-06T11:03:46.449Z,94591.88
2023-03-06T11:04:56.083Z,94592.63
2023-03-06T11:06:05.322Z,94592.63
2023-03-06T11:07:15.430Z,94589.56
2023-03-06T11:08:23.320Z,94594.16
2023-03-06T11:09:26.350Z,94593.41
2023-03-06T11:10:34.129Z,94584.53
2023-03-06T11:11:38.049Z,94584.13
2023-03-06T11:12:43.752Z,94583.34
2023-03-06T11:13:58.157Z,94582.97
2023-03-06T11:15:17.570Z,94576.72
2023-03-06T11:16:25.948Z,94579.44
2023-03-06T11:17:29.543Z,94579.81
2023-03-06T11:18:39.994Z,94568.59
2023-03-06T11:19:42.016Z,94572.47
2023-03-06T11:20:52.564Z,94578.66
2023-03-06T11:22:03.504Z,94586.34
2023-03-06T11:23:08.308Z,94579.41
2023-03-06T11:24:19.710Z,94578.66
2023-03-06T11:25:25.552Z,94578.66
2023-03-06T11:26:40.620Z,94577.09
2023-03-06T11:27:44.985Z,94584.84
2023-03-06T11:28:58.153Z,94580.22
2023-03-06T11:30:05.442Z,94591.78
2023-03-06T11:31:14.657Z,94583.25
2023-03-06T11:32:23.563Z,94591.72
2023-03-06T11:33:31.792Z,94585.91
2023-03-06T11:34:46.162Z,94589.38
2023-03-06T11:35:57.871Z,94593.59
2023-03-06T11:37:07.053Z,94593.25
2023-03-06T11:38:18.809Z,94588.66
2023-03-06T11:39:30.567Z,94593.31
2023-03-06T11:40:40.834Z,94591.78
2023-03-06T11:41:52.686Z,94595.66
2023-03-06T11:43:03.721Z,94584.84
2023-03-06T11:44:16.391Z,94592.94
2023-03-06T11:45:25.160Z,94584.09
2023-03-06T11:46:32.191Z,94584.09
2023-03-06T11:47:39.693Z,94584.47
2023-03-06T11:48:47.582Z,94578.31
2023-03-06T11:49:56.517Z,94581.78
2023-03-06T11:51:07.514Z,94584.91
2023-03-06T11:52:19.920Z,94590.31
2023-03-06T11:53:26.062Z,94584.91
2023-03-06T11:54:27.902Z,94579.50
2023-03-06T11:55:41.120Z,94588.34
2023-03-06T11:56:54.727Z,94582.97
2023-03-06T11:58:24.825Z,94581.44
2023-03-06T12:00:02.903Z,94581.81
2023-03-06T12:01:12.846Z,94578.38
2023-03-06T12:02:25.036Z,94589.53
2023-03-06T12:03:50.539Z,94582.59
2023-03-06T12:05:09.125Z,94577.56
2023-03-06T12:06:22.830Z,94580.25
2023-03-06T12:07:32.253Z,94576.38
2023-03-06T12:08:45.567Z,94570.56
2023-03-06T12:09:55.510Z,94572.88
2023-03-06T12:11:05.369Z,94571.69
2023-03-06T12:12:23.048Z,94559.31
2023-03-06T12:13:43.109Z,94566.25
2023-03-06T12:15:00.836Z,94565.84
2023-03-06T12:16:24.409Z,94563.50
2023-03-06T12:17:38.473Z,94566.19
2023-03-06T12:18:52.631Z,94563.09
2023-03-06T12:20:25.873Z,94566.13
2023-03-06T12:21:35.210Z,94563.84
2023-03-06T12:22:57.915Z,94571.19
2023-03-06T12:24:24.362Z,94569.66
2023-03-06T12:25:35.179Z,94568.84
2023-03-06T12:26:52.654Z,94567.28
2023-03-06T12:28:07.616Z,94560.69
2023-03-06T12:29:27.983Z,94560.31
2023-03-06T12:30:42.881Z,94567.31
2023-03-06T12:32:04.058Z,94560.84
2023-03-06T12:33:18.216Z,94567.47
2023-03-06T12:34:37.897Z,94559.75
2023-03-06T12:35:56.487Z,94556.69
2023-03-06T12:37:11.927Z,94559.00
2023-03-06T12:38:36.522Z,94554.78
2023-03-06T12:39:53.733Z,94553.25
2023-03-06T12:41:08.917Z,94551.72
2023-03-06T12:42:27.012Z,94555.59
2023-03-06T12:43:47.404Z,94556.78
2023-03-06T12:45:10.766Z,94549.06
2023-03-06T12:46:16.105Z,94556.78
2023-03-06T12:47:22.385Z,94551.44
2023-03-06T12:48:29.413Z,94547.25